Terminal Aerodrome Forecast
Issued by NWS

Home | Current Version | Previous Version | Text Only | Print | Product List | Glossary On
Versions: 1 2 3 4 5 6 7 8 9 10 11 12 13 14 15 16 17 18 19
000
FTUS43 KILX 031742
TAFBMI
TAF
KBMI 031742Z 0318/0418 20017G25KT P6SM SCT110 SCT250
     FM040100 18014KT P6SM VCSH BKN100
     FM040500 20012KT P6SM SCT060 BKN120
     FM041000 20011KT P6SM VCTS BKN060CB
     FM041500 22012G19KT P6SM SCT050 BKN150=

USA.gov is the U.S. government's official web portal to all federal, state and local government web resources and services.